sensor_id;sensor_type;location;lat;lon;timestamp;P1;durP1;ratioP1;P2;durP2;ratioP2
71395;SDS011;59888;55.814;37.132;2024-02-04T00:01:53;8.25;;;4.45;;
71395;SDS011;59888;55.814;37.132;2024-02-04T00:04:19;9.90;;;4.47;;
71395;SDS011;59888;55.814;37.132;2024-02-04T00:06:45;7.38;;;3.90;;
71395;SDS011;59888;55.814;37.132;2024-02-04T00:09:10;7.18;;;3.88;;
71395;SDS011;59888;55.814;37.132;2024-02-04T00:11:36;9.38;;;4.60;;
71395;SDS011;59888;55.814;37.132;2024-02-04T00:14:02;9.70;;;4.15;;
71395;SDS011;59888;55.814;37.132;2024-02-04T00:16:28;7.97;;;4.22;;
71395;SDS011;59888;55.814;37.132;2024-02-04T00:19:01;7.85;;;4.03;;
71395;SDS011;59888;55.814;37.132;2024-02-04T00:21:26;7.47;;;3.95;;
71395;SDS011;59888;55.814;37.132;2024-02-04T00:23:52;9.23;;;4.50;;
71395;SDS011;59888;55.814;37.132;2024-02-04T00:26:20;9.48;;;4.45;;
71395;SDS011;59888;55.814;37.132;2024-02-04T00:28:45;9.32;;;4.25;;
71395;SDS011;59888;55.814;37.132;2024-02-04T00:31:11;7.40;;;3.95;;
71395;SDS011;59888;55.814;37.132;2024-02-04T00:33:38;9.43;;;3.85;;
71395;SDS011;59888;55.814;37.132;2024-02-04T00:36:03;8.00;;;4.28;;
71395;SDS011;59888;55.814;37.132;2024-02-04T00:38:29;9.25;;;3.90;;
71395;SDS011;59888;55.814;37.132;2024-02-04T00:41:10;7.50;;;4.15;;
71395;SDS011;59888;55.814;37.132;2024-02-04T00:43:36;8.25;;;3.88;;
71395;SDS011;59888;55.814;37.132;2024-02-04T00:46:02;8.98;;;3.97;;
71395;SDS011;59888;55.814;37.132;2024-02-04T00:48:29;9.88;;;3.75;;
71395;SDS011;59888;55.814;37.132;2024-02-04T00:50:55;10.43;;;3.80;;
71395;SDS011;59888;55.814;37.132;2024-02-04T00:53:21;7.93;;;3.25;;
71395;SDS011;59888;55.814;37.132;2024-02-04T00:55:47;5.53;;;3.38;;
71395;SDS011;59888;55.814;37.132;2024-02-04T00:58:13;6.28;;;3.58;;
71395;SDS011;59888;55.814;37.132;2024-02-04T01:00:44;8.75;;;3.60;;
71395;SDS011;59888;55.814;37.132;2024-02-04T01:03:10;7.18;;;3.03;;
71395;SDS011;59888;55.814;37.132;2024-02-04T01:05:36;6.63;;;3.00;;
71395;SDS011;59888;55.814;37.132;2024-02-04T01:08:02;5.15;;;2.53;;
71395;SDS011;59888;55.814;37.132;2024-02-04T01:10:28;5.20;;;3.00;;
71395;SDS011;59888;55.814;37.132;2024-02-04T01:12:54;5.40;;;2.25;;
71395;SDS011;59888;55.814;37.132;2024-02-04T01:15:20;5.95;;;2.55;;
71395;SDS011;59888;55.814;37.132;2024-02-04T01:17:46;5.28;;;2.60;;
71395;SDS011;59888;55.814;37.132;2024-02-04T01:20:12;5.90;;;2.47;;
71395;SDS011;59888;55.814;37.132;2024-02-04T01:22:39;4.32;;;2.15;;
71395;SDS011;59888;55.814;37.132;2024-02-04T01:25:05;4.45;;;2.60;;
71395;SDS011;59888;55.814;37.132;2024-02-04T01:27:31;3.72;;;2.00;;
71395;SDS011;59888;55.814;37.132;2024-02-04T01:29:58;3.22;;;2.15;;
71395;SDS011;59888;55.814;37.132;2024-02-04T01:32:23;4.55;;;2.10;;
71395;SDS011;59888;55.814;37.132;2024-02-04T01:34:50;3.92;;;2.10;;
71395;SDS011;59888;55.814;37.132;2024-02-04T01:37:16;3.35;;;1.92;;
71395;SDS011;59888;55.814;37.132;2024-02-04T01:39:41;5.15;;;2.20;;
71395;SDS011;59888;55.814;37.132;2024-02-04T01:42:07;4.43;;;2.10;;
71395;SDS011;59888;55.814;37.132;2024-02-04T01:44:34;4.53;;;1.80;;
71395;SDS011;59888;55.814;37.132;2024-02-04T01:46:59;4.55;;;2.05;;
71395;SDS011;59888;55.814;37.132;2024-02-04T01:49:26;4.00;;;2.00;;
71395;SDS011;59888;55.814;37.132;2024-02-04T01:51:52;3.80;;;2.22;;
71395;SDS011;59888;55.814;37.132;2024-02-04T01:54:18;3.88;;;1.58;;
71395;SDS011;59888;55.814;37.132;2024-02-04T01:56:46;3.53;;;1.80;;
71395;SDS011;59888;55.814;37.132;2024-02-04T01:59:12;3.85;;;2.28;;
71395;SDS011;59888;55.814;37.132;2024-02-04T02:01:39;4.30;;;1.80;;
71395;SDS011;59888;55.814;37.132;2024-02-04T02:04:05;4.03;;;1.90;;
71395;SDS011;59888;55.814;37.132;2024-02-04T02:06:31;4.10;;;2.30;;
71395;SDS011;59888;55.814;37.132;2024-02-04T02:08:58;4.05;;;2.28;;
71395;SDS011;59888;55.814;37.132;2024-02-04T02:11:33;4.32;;;2.15;;
71395;SDS011;59888;55.814;37.132;2024-02-04T02:14:03;3.45;;;2.00;;
71395;SDS011;59888;55.814;37.132;2024-02-04T02:16:30;4.13;;;2.08;;
71395;SDS011;59888;55.814;37.132;2024-02-04T02:19:12;3.85;;;2.00;;
71395;SDS011;59888;55.814;37.132;2024-02-04T02:21:46;4.55;;;2.45;;
71395;SDS011;59888;55.814;37.132;2024-02-04T02:26:43;5.90;;;2.03;;
71395;SDS011;59888;55.814;37.132;2024-02-04T02:29:09;3.72;;;1.85;;
71395;SDS011;59888;55.814;37.132;2024-02-04T02:31:35;3.55;;;1.70;;
71395;SDS011;59888;55.814;37.132;2024-02-04T02:34:02;3.88;;;1.70;;
71395;SDS011;59888;55.814;37.132;2024-02-04T02:36:29;3.97;;;1.90;;
71395;SDS011;59888;55.814;37.132;2024-02-04T02:41:21;2.60;;;1.58;;
71395;SDS011;59888;55.814;37.132;2024-02-04T02:43:47;2.97;;;1.40;;
71395;SDS011;59888;55.814;37.132;2024-02-04T02:46:15;3.00;;;1.60;;
71395;SDS011;59888;55.814;37.132;2024-02-04T02:48:41;2.67;;;1.50;;
71395;SDS011;59888;55.814;37.132;2024-02-04T02:51:12;2.70;;;1.20;;
71395;SDS011;59888;55.814;37.132;2024-02-04T02:53:38;2.58;;;1.40;;
71395;SDS011;59888;55.814;37.132;2024-02-04T02:56:05;2.78;;;1.25;;
71395;SDS011;59888;55.814;37.132;2024-02-04T02:58:31;2.17;;;1.05;;
71395;SDS011;59888;55.814;37.132;2024-02-04T03:00:58;2.50;;;1.30;;
71395;SDS011;59888;55.814;37.132;2024-02-04T03:03:24;2.47;;;1.38;;
71395;SDS011;59888;55.814;37.132;2024-02-04T03:05:50;3.70;;;1.30;;
71395;SDS011;59888;55.814;37.132;2024-02-04T03:08:16;2.05;;;1.10;;
71395;SDS011;59888;55.814;37.132;2024-02-04T03:10:43;2.00;;;1.10;;
71395;SDS011;59888;55.814;37.132;2024-02-04T03:13:09;1.60;;;0.90;;
71395;SDS011;59888;55.814;37.132;2024-02-04T03:15:36;1.67;;;0.88;;
71395;SDS011;59888;55.814;37.132;2024-02-04T03:18:02;2.58;;;0.90;;
71395;SDS011;59888;55.814;37.132;2024-02-04T03:20:28;1.70;;;0.93;;
71395;SDS011;59888;55.814;37.132;2024-02-04T03:22:55;1.52;;;0.85;;
71395;SDS011;59888;55.814;37.132;2024-02-04T03:25:22;1.60;;;0.85;;
71395;SDS011;59888;55.814;37.132;2024-02-04T03:27:52;1.42;;;0.70;;
71395;SDS011;59888;55.814;37.132;2024-02-04T03:30:21;1.77;;;0.85;;
71395;SDS011;59888;55.814;37.132;2024-02-04T03:32:49;1.95;;;0.85;;
71395;SDS011;59888;55.814;37.132;2024-02-04T03:35:15;1.33;;;0.68;;
71395;SDS011;59888;55.814;37.132;2024-02-04T03:37:41;1.60;;;0.80;;
71395;SDS011;59888;55.814;37.132;2024-02-04T03:40:09;2.05;;;0.90;;
71395;SDS011;59888;55.814;37.132;2024-02-04T03:42:34;2.53;;;0.80;;
71395;SDS011;59888;55.814;37.132;2024-02-04T03:45:02;1.92;;;0.60;;
71395;SDS011;59888;55.814;37.132;2024-02-04T03:47:30;1.20;;;0.50;;
71395;SDS011;59888;55.814;37.132;2024-02-04T03:49:55;1.27;;;0.63;;
71395;SDS011;59888;55.814;37.132;2024-02-04T03:52:21;1.67;;;0.60;;
71395;SDS011;59888;55.814;37.132;2024-02-04T03:54:49;1.40;;;0.60;;
71395;SDS011;59888;55.814;37.132;2024-02-04T03:57:15;1.45;;;0.60;;
71395;SDS011;59888;55.814;37.132;2024-02-04T03:59:44;1.17;;;0.55;;
71395;SDS011;59888;55.814;37.132;2024-02-04T04:02:13;1.45;;;0.50;;
71395;SDS011;59888;55.814;37.132;2024-02-04T04:04:39;2.55;;;1.00;;
71395;SDS011;59888;55.814;37.132;2024-02-04T04:07:06;3.45;;;0.88;;
71395;SDS011;59888;55.814;37.132;2024-02-04T04:09:34;1.67;;;0.82;;
71395;SDS011;59888;55.814;37.132;2024-02-04T04:12:00;1.42;;;0.70;;
71395;SDS011;59888;55.814;37.132;2024-02-04T04:14:26;1.85;;;0.80;;
71395;SDS011;59888;55.814;37.132;2024-02-04T04:16:53;1.58;;;0.63;;
71395;SDS011;59888;55.814;37.132;2024-02-04T04:19:19;1.38;;;0.73;;
71395;SDS011;59888;55.814;37.132;2024-02-04T04:21:45;1.23;;;0.65;;
71395;SDS011;59888;55.814;37.132;2024-02-04T04:24:12;1.88;;;1.08;;
71395;SDS011;59888;55.814;37.132;2024-02-04T04:26:41;4.00;;;0.75;;
71395;SDS011;59888;55.814;37.132;2024-02-04T04:29:21;1.13;;;0.60;;
71395;SDS011;59888;55.814;37.132;2024-02-04T04:31:48;2.30;;;0.70;;
71395;SDS011;59888;55.814;37.132;2024-02-04T04:34:14;0.93;;;0.60;;
71395;SDS011;59888;55.814;37.132;2024-02-04T04:36:39;0.82;;;0.55;;
71395;SDS011;59888;55.814;37.132;2024-02-04T04:39:06;0.82;;;0.50;;
71395;SDS011;59888;55.814;37.132;2024-02-04T04:41:32;1.73;;;0.70;;
71395;SDS011;59888;55.814;37.132;2024-02-04T04:43:58;1.20;;;0.50;;
71395;SDS011;59888;55.814;37.132;2024-02-04T04:46:24;0.60;;;0.40;;
71395;SDS011;59888;55.814;37.132;2024-02-04T04:48:50;0.80;;;0.50;;
71395;SDS011;59888;55.814;37.132;2024-02-04T04:51:17;0.98;;;0.50;;
71395;SDS011;59888;55.814;37.132;2024-02-04T04:53:45;0.63;;;0.47;;
71395;SDS011;59888;55.814;37.132;2024-02-04T04:56:11;3.13;;;0.50;;
71395;SDS011;59888;55.814;37.132;2024-02-04T04:58:37;0.95;;;0.45;;
71395;SDS011;59888;55.814;37.132;2024-02-04T05:01:08;1.02;;;0.40;;
71395;SDS011;59888;55.814;37.132;2024-02-04T05:03:36;2.40;;;0.68;;
71395;SDS011;59888;55.814;37.132;2024-02-04T05:06:02;0.98;;;0.50;;
71395;SDS011;59888;55.814;37.132;2024-02-04T05:08:33;1.67;;;0.90;;
71395;SDS011;59888;55.814;37.132;2024-02-04T05:10:59;2.78;;;1.05;;
71395;SDS011;59888;55.814;37.132;2024-02-04T05:13:25;2.45;;;1.25;;
71395;SDS011;59888;55.814;37.132;2024-02-04T05:15:51;1.50;;;0.80;;
71395;SDS011;59888;55.814;37.132;2024-02-04T05:18:20;1.90;;;0.88;;
71395;SDS011;59888;55.814;37.132;2024-02-04T05:20:49;1.65;;;0.80;;
71395;SDS011;59888;55.814;37.132;2024-02-04T05:23:17;1.33;;;0.70;;
71395;SDS011;59888;55.814;37.132;2024-02-04T05:25:43;2.63;;;0.80;;
71395;SDS011;59888;55.814;37.132;2024-02-04T05:28:09;1.10;;;0.70;;
71395;SDS011;59888;55.814;37.132;2024-02-04T05:30:40;1.75;;;0.98;;
71395;SDS011;59888;55.814;37.132;2024-02-04T05:33:06;1.83;;;0.80;;
71395;SDS011;59888;55.814;37.132;2024-02-04T05:35:31;0.90;;;0.57;;
71395;SDS011;59888;55.814;37.132;2024-02-04T05:37:57;1.50;;;0.60;;
71395;SDS011;59888;55.814;37.132;2024-02-04T05:40:23;0.98;;;0.40;;
71395;SDS011;59888;55.814;37.132;2024-02-04T05:42:51;1.48;;;0.60;;
71395;SDS011;59888;55.814;37.132;2024-02-04T05:45:18;1.83;;;0.50;;
71395;SDS011;59888;55.814;37.132;2024-02-04T05:47:43;0.73;;;0.43;;
71395;SDS011;59888;55.814;37.132;2024-02-04T05:50:09;2.58;;;0.40;;
71395;SDS011;59888;55.814;37.132;2024-02-04T05:52:39;0.50;;;0.22;;
71395;SDS011;59888;55.814;37.132;2024-02-04T05:55:09;0.47;;;0.30;;
71395;SDS011;59888;55.814;37.132;2024-02-04T05:57:35;1.23;;;0.50;;
71395;SDS011;59888;55.814;37.132;2024-02-04T06:00:03;0.20;;;0.20;;
71395;SDS011;59888;55.814;37.132;2024-02-04T06:02:35;0.35;;;0.30;;
71395;SDS011;59888;55.814;37.132;2024-02-04T06:05:00;0.60;;;0.40;;
71395;SDS011;59888;55.814;37.132;2024-02-04T06:07:30;0.80;;;0.30;;
71395;SDS011;59888;55.814;37.132;2024-02-04T06:09:56;0.47;;;0.30;;
71395;SDS011;59888;55.814;37.132;2024-02-04T06:12:23;0.35;;;0.30;;
71395;SDS011;59888;55.814;37.132;2024-02-04T06:14:49;0.50;;;0.50;;
71395;SDS011;59888;55.814;37.132;2024-02-04T06:17:16;0.90;;;0.50;;
71395;SDS011;59888;55.814;37.132;2024-02-04T06:19:44;0.40;;;0.30;;
71395;SDS011;59888;55.814;37.132;2024-02-04T06:22:11;0.60;;;0.30;;
71395;SDS011;59888;55.814;37.132;2024-02-04T06:24:37;0.45;;;0.35;;
71395;SDS011;59888;55.814;37.132;2024-02-04T06:27:07;0.80;;;0.22;;
71395;SDS011;59888;55.814;37.132;2024-02-04T06:29:33;0.20;;;0.20;;
71395;SDS011;59888;55.814;37.132;2024-02-04T06:31:59;0.30;;;0.20;;
71395;SDS011;59888;55.814;37.132;2024-02-04T06:34:25;0.68;;;0.30;;
71395;SDS011;59888;55.814;37.132;2024-02-04T06:36:51;0.32;;;0.30;;
71395;SDS011;59888;55.814;37.132;2024-02-04T06:39:22;0.60;;;0.30;;
71395;SDS011;59888;55.814;37.132;2024-02-04T06:41:48;0.50;;;0.40;;
71395;SDS011;59888;55.814;37.132;2024-02-04T06:44:16;0.22;;;0.20;;
71395;SDS011;59888;55.814;37.132;2024-02-04T06:46:41;0.47;;;0.30;;
71395;SDS011;59888;55.814;37.132;2024-02-04T06:49:08;0.30;;;0.30;;
71395;SDS011;59888;55.814;37.132;2024-02-04T06:51:34;0.50;;;0.30;;
71395;SDS011;59888;55.814;37.132;2024-02-04T06:54:00;0.30;;;0.30;;
71395;SDS011;59888;55.814;37.132;2024-02-04T06:56:26;0.28;;;0.20;;
71395;SDS011;59888;55.814;37.132;2024-02-04T06:58:53;0.95;;;0.32;;
71395;SDS011;59888;55.814;37.132;2024-02-04T07:01:18;0.20;;;0.20;;
71395;SDS011;59888;55.814;37.132;2024-02-04T07:03:44;0.47;;;0.30;;
71395;SDS011;59888;55.814;37.132;2024-02-04T07:06:12;0.40;;;0.30;;
71395;SDS011;59888;55.814;37.132;2024-02-04T07:08:45;0.50;;;0.30;;
71395;SDS011;59888;55.814;37.132;2024-02-04T07:11:12;0.40;;;0.30;;
71395;SDS011;59888;55.814;37.132;2024-02-04T07:13:40;0.38;;;0.20;;
71395;SDS011;59888;55.814;37.132;2024-02-04T07:16:09;0.60;;;0.30;;
71395;SDS011;59888;55.814;37.132;2024-02-04T07:18:35;0.45;;;0.20;;
71395;SDS011;59888;55.814;37.132;2024-02-04T07:21:06;1.33;;;0.40;;
71395;SDS011;59888;55.814;37.132;2024-02-04T07:23:31;1.15;;;0.35;;
71395;SDS011;59888;55.814;37.132;2024-02-04T07:25:58;1.10;;;0.40;;
71395;SDS011;59888;55.814;37.132;2024-02-04T07:28:23;1.02;;;0.50;;
71395;SDS011;59888;55.814;37.132;2024-02-04T07:30:49;1.02;;;0.50;;
71395;SDS011;59888;55.814;37.132;2024-02-04T07:33:17;0.63;;;0.40;;
71395;SDS011;59888;55.814;37.132;2024-02-04T07:35:42;1.25;;;0.38;;
71395;SDS011;59888;55.814;37.132;2024-02-04T07:38:08;0.70;;;0.30;;
71395;SDS011;59888;55.814;37.132;2024-02-04T07:41:18;0.90;;;0.32;;
71395;SDS011;59888;55.814;37.132;2024-02-04T07:43:44;0.95;;;0.45;;
71395;SDS011;59888;55.814;37.132;2024-02-04T07:46:10;1.65;;;0.50;;
71395;SDS011;59888;55.814;37.132;2024-02-04T07:48:38;2.33;;;0.43;;
71395;SDS011;59888;55.814;37.132;2024-02-04T07:51:03;1.50;;;0.50;;
71395;SDS011;59888;55.814;37.132;2024-02-04T07:53:30;2.97;;;0.50;;
71395;SDS011;59888;55.814;37.132;2024-02-04T07:55:56;1.70;;;0.50;;
71395;SDS011;59888;55.814;37.132;2024-02-04T07:58:22;1.45;;;0.60;;
71395;SDS011;59888;55.814;37.132;2024-02-04T08:00:47;3.88;;;0.63;;
71395;SDS011;59888;55.814;37.132;2024-02-04T08:03:15;3.28;;;0.70;;
71395;SDS011;59888;55.814;37.132;2024-02-04T08:05:41;1.67;;;0.65;;
71395;SDS011;59888;55.814;37.132;2024-02-04T08:08:07;3.80;;;0.65;;
71395;SDS011;59888;55.814;37.132;2024-02-04T08:10:35;1.58;;;0.73;;
71395;SDS011;59888;55.814;37.132;2024-02-04T08:13:01;3.40;;;0.88;;
71395;SDS011;59888;55.814;37.132;2024-02-04T08:15:27;4.60;;;0.90;;
71395;SDS011;59888;55.814;37.132;2024-02-04T08:17:53;3.78;;;0.70;;
71395;SDS011;59888;55.814;37.132;2024-02-04T08:20:19;3.95;;;0.90;;
71395;SDS011;59888;55.814;37.132;2024-02-04T08:22:46;3.65;;;1.10;;
71395;SDS011;59888;55.814;37.132;2024-02-04T08:25:12;5.93;;;1.00;;
71395;SDS011;59888;55.814;37.132;2024-02-04T08:27:38;3.05;;;0.80;;
71395;SDS011;59888;55.814;37.132;2024-02-04T08:30:05;4.05;;;1.20;;
71395;SDS011;59888;55.814;37.132;2024-02-04T08:32:32;2.97;;;0.80;;
71395;SDS011;59888;55.814;37.132;2024-02-04T08:34:58;5.30;;;1.23;;
71395;SDS011;59888;55.814;37.132;2024-02-04T08:37:25;2.80;;;0.70;;
71395;SDS011;59888;55.814;37.132;2024-02-04T08:39:54;4.50;;;1.13;;
71395;SDS011;59888;55.814;37.132;2024-02-04T08:42:20;2.97;;;0.77;;
71395;SDS011;59888;55.814;37.132;2024-02-04T08:44:46;5.03;;;0.98;;
71395;SDS011;59888;55.814;37.132;2024-02-04T08:47:12;4.22;;;1.35;;
71395;SDS011;59888;55.814;37.132;2024-02-04T08:49:43;3.63;;;1.08;;
71395;SDS011;59888;55.814;37.132;2024-02-04T08:52:09;3.25;;;0.93;;
71395;SDS011;59888;55.814;37.132;2024-02-04T08:54:38;3.72;;;1.08;;
71395;SDS011;59888;55.814;37.132;2024-02-04T08:57:04;3.38;;;0.90;;
71395;SDS011;59888;55.814;37.132;2024-02-04T08:59:31;5.32;;;0.88;;
71395;SDS011;59888;55.814;37.132;2024-02-04T09:01:59;4.20;;;1.08;;
71395;SDS011;59888;55.814;37.132;2024-02-04T09:04:25;4.22;;;1.08;;
71395;SDS011;59888;55.814;37.132;2024-02-04T09:06:51;5.47;;;1.15;;
71395;SDS011;59888;55.814;37.132;2024-02-04T09:09:17;4.53;;;0.90;;
71395;SDS011;59888;55.814;37.132;2024-02-04T09:11:43;4.38;;;1.05;;
71395;SDS011;59888;55.814;37.132;2024-02-04T09:14:09;7.82;;;1.00;;
71395;SDS011;59888;55.814;37.132;2024-02-04T09:16:37;4.13;;;1.00;;
71395;SDS011;59888;55.814;37.132;2024-02-04T09:19:05;5.57;;;1.20;;
71395;SDS011;59888;55.814;37.132;2024-02-04T09:21:30;4.43;;;1.00;;
71395;SDS011;59888;55.814;37.132;2024-02-04T09:23:58;4.03;;;1.10;;
71395;SDS011;59888;55.814;37.132;2024-02-04T09:26:25;6.80;;;0.98;;
71395;SDS011;59888;55.814;37.132;2024-02-04T09:28:55;5.80;;;1.33;;
71395;SDS011;59888;55.814;37.132;2024-02-04T09:31:21;5.90;;;1.20;;
71395;SDS011;59888;55.814;37.132;2024-02-04T09:33:47;3.53;;;0.90;;
71395;SDS011;59888;55.814;37.132;2024-02-04T09:36:13;7.97;;;1.30;;
71395;SDS011;59888;55.814;37.132;2024-02-04T09:38:41;5.50;;;1.20;;
71395;SDS011;59888;55.814;37.132;2024-02-04T09:41:07;6.03;;;0.98;;
71395;SDS011;59888;55.814;37.132;2024-02-04T09:43:33;5.43;;;0.90;;
71395;SDS011;59888;55.814;37.132;2024-02-04T09:46:02;3.95;;;1.08;;
71395;SDS011;59888;55.814;37.132;2024-02-04T09:48:30;7.55;;;1.40;;
71395;SDS011;59888;55.814;37.132;2024-02-04T09:50:57;5.28;;;1.00;;
71395;SDS011;59888;55.814;37.132;2024-02-04T09:53:27;7.53;;;1.55;;
71395;SDS011;59888;55.814;37.132;2024-02-04T09:55:56;6.00;;;1.48;;
71395;SDS011;59888;55.814;37.132;2024-02-04T09:58:24;5.82;;;1.50;;
71395;SDS011;59888;55.814;37.132;2024-02-04T10:00:50;8.07;;;1.63;;
71395;SDS011;59888;55.814;37.132;2024-02-04T10:03:16;7.13;;;1.63;;
71395;SDS011;59888;55.814;37.132;2024-02-04T10:05:44;14.52;;;2.38;;
71395;SDS011;59888;55.814;37.132;2024-02-04T10:08:10;8.80;;;3.22;;
71395;SDS011;59888;55.814;37.132;2024-02-04T10:10:36;8.30;;;2.47;;
71395;SDS011;59888;55.814;37.132;2024-02-04T10:13:09;10.35;;;1.13;;
71395;SDS011;59888;55.814;37.132;2024-02-04T10:15:35;6.28;;;1.35;;
71395;SDS011;59888;55.814;37.132;2024-02-04T10:18:04;3.33;;;0.70;;
71395;SDS011;59888;55.814;37.132;2024-02-04T10:20:30;4.97;;;1.10;;
71395;SDS011;59888;55.814;37.132;2024-02-04T10:22:56;5.22;;;1.40;;
71395;SDS011;59888;55.814;37.132;2024-02-04T10:25:22;6.63;;;1.08;;
71395;SDS011;59888;55.814;37.132;2024-02-04T10:27:49;4.82;;;1.40;;
71395;SDS011;59888;55.814;37.132;2024-02-04T10:30:14;3.88;;;1.13;;
71395;SDS011;59888;55.814;37.132;2024-02-04T10:32:41;4.07;;;1.10;;
71395;SDS011;59888;55.814;37.132;2024-02-04T10:35:09;4.72;;;1.27;;
71395;SDS011;59888;55.814;37.132;2024-02-04T10:37:35;8.23;;;0.98;;
71395;SDS011;59888;55.814;37.132;2024-02-04T10:40:01;5.50;;;1.45;;
71395;SDS011;59888;55.814;37.132;2024-02-04T10:42:29;5.65;;;1.05;;
71395;SDS011;59888;55.814;37.132;2024-02-04T10:44:57;3.25;;;0.77;;
71395;SDS011;59888;55.814;37.132;2024-02-04T10:47:24;3.45;;;0.85;;
71395;SDS011;59888;55.814;37.132;2024-02-04T10:49:50;5.40;;;0.93;;
71395;SDS011;59888;55.814;37.132;2024-02-04T10:52:19;4.95;;;0.80;;
71395;SDS011;59888;55.814;37.132;2024-02-04T10:54:49;4.65;;;0.90;;
71395;SDS011;59888;55.814;37.132;2024-02-04T10:57:17;3.65;;;0.70;;
71395;SDS011;59888;55.814;37.132;2024-02-04T10:59:50;2.53;;;0.80;;
71395;SDS011;59888;55.814;37.132;2024-02-04T11:02:17;4.75;;;1.00;;
71395;SDS011;59888;55.814;37.132;2024-02-04T11:04:43;4.50;;;0.88;;
71395;SDS011;59888;55.814;37.132;2024-02-04T11:07:11;3.90;;;1.02;;
71395;SDS011;59888;55.814;37.132;2024-02-04T11:09:40;1.27;;;0.55;;
71395;SDS011;59888;55.814;37.132;2024-02-04T11:12:08;4.63;;;0.70;;
71395;SDS011;59888;55.814;37.132;2024-02-04T11:14:34;1.48;;;0.70;;
71395;SDS011;59888;55.814;37.132;2024-02-04T11:22:51;2.15;;;0.60;;
71395;SDS011;59888;55.814;37.132;2024-02-04T11:27:45;2.00;;;0.60;;
71395;SDS011;59888;55.814;37.132;2024-02-04T11:30:11;2.45;;;0.60;;
71395;SDS011;59888;55.814;37.132;2024-02-04T11:32:39;2.33;;;0.60;;
71395;SDS011;59888;55.814;37.132;2024-02-04T11:35:05;2.15;;;0.70;;
71395;SDS011;59888;55.814;37.132;2024-02-04T11:37:33;4.63;;;1.00;;
71395;SDS011;59888;55.814;37.132;2024-02-04T11:39:59;2.45;;;0.70;;
71395;SDS011;59888;55.814;37.132;2024-02-04T11:42:31;1.38;;;0.60;;
71395;SDS011;59888;55.814;37.132;2024-02-04T11:45:06;2.65;;;0.80;;
71395;SDS011;59888;55.814;37.132;2024-02-04T11:47:34;2.95;;;0.60;;
71395;SDS011;59888;55.814;37.132;2024-02-04T11:50:01;4.97;;;0.82;;
71395;SDS011;59888;55.814;37.132;2024-02-04T11:52:29;2.33;;;0.70;;
71395;SDS011;59888;55.814;37.132;2024-02-04T11:54:57;1.73;;;0.60;;
71395;SDS011;59888;55.814;37.132;2024-02-04T11:57:23;2.53;;;0.88;;
71395;SDS011;59888;55.814;37.132;2024-02-04T11:59:54;1.60;;;0.40;;
71395;SDS011;59888;55.814;37.132;2024-02-04T12:02:21;3.72;;;1.08;;
71395;SDS011;59888;55.814;37.132;2024-02-04T12:04:49;2.05;;;0.75;;
71395;SDS011;59888;55.814;37.132;2024-02-04T12:07:16;5.13;;;0.60;;
71395;SDS011;59888;55.814;37.132;2024-02-04T12:09:44;4.18;;;0.80;;
71395;SDS011;59888;55.814;37.132;2024-02-04T12:12:11;5.88;;;0.60;;
71395;SDS011;59888;55.814;37.132;2024-02-04T12:14:37;3.78;;;1.08;;
71395;SDS011;59888;55.814;37.132;2024-02-04T12:17:09;3.17;;;0.80;;
71395;SDS011;59888;55.814;37.132;2024-02-04T12:19:37;5.50;;;0.80;;
71395;SDS011;59888;55.814;37.132;2024-02-04T12:22:04;2.85;;;0.80;;
71395;SDS011;59888;55.814;37.132;2024-02-04T12:24:36;3.08;;;0.50;;
71395;SDS011;59888;55.814;37.132;2024-02-04T12:27:03;2.08;;;0.70;;
71395;SDS011;59888;55.814;37.132;2024-02-04T12:29:30;3.13;;;1.27;;
71395;SDS011;59888;55.814;37.132;2024-02-04T12:32:01;2.00;;;1.10;;
71395;SDS011;59888;55.814;37.132;2024-02-04T12:34:29;1.90;;;0.60;;
71395;SDS011;59888;55.814;37.132;2024-02-04T12:36:58;3.92;;;0.80;;
71395;SDS011;59888;55.814;37.132;2024-02-04T12:39:26;1.55;;;0.50;;
71395;SDS011;59888;55.814;37.132;2024-02-04T12:41:52;2.45;;;0.98;;
71395;SDS011;59888;55.814;37.132;2024-02-04T12:44:18;4.63;;;1.00;;
71395;SDS011;59888;55.814;37.132;2024-02-04T12:46:44;5.68;;;1.02;;
71395;SDS011;59888;55.814;37.132;2024-02-04T12:49:16;2.75;;;0.90;;
71395;SDS011;59888;55.814;37.132;2024-02-04T12:51:43;3.40;;;1.00;;
71395;SDS011;59888;55.814;37.132;2024-02-04T12:54:09;4.65;;;1.55;;
71395;SDS011;59888;55.814;37.132;2024-02-04T12:59:08;5.03;;;2.15;;
71395;SDS011;59888;55.814;37.132;2024-02-04T13:01:37;4.63;;;1.50;;
71395;SDS011;59888;55.814;37.132;2024-02-04T13:04:03;5.22;;;1.00;;
71395;SDS011;59888;55.814;37.132;2024-02-04T13:06:30;5.13;;;1.00;;
71395;SDS011;59888;55.814;37.132;2024-02-04T13:08:57;2.67;;;0.90;;
71395;SDS011;59888;55.814;37.132;2024-02-04T13:11:24;2.03;;;0.65;;
71395;SDS011;59888;55.814;37.132;2024-02-04T13:13:51;7.07;;;1.30;;
71395;SDS011;59888;55.814;37.132;2024-02-04T13:18:54;3.30;;;1.23;;
71395;SDS011;59888;55.814;37.132;2024-02-04T13:21:21;5.82;;;1.45;;
71395;SDS011;59888;55.814;37.132;2024-02-04T13:23:50;9.27;;;1.40;;
71395;SDS011;59888;55.814;37.132;2024-02-04T13:26:16;4.90;;;1.08;;
71395;SDS011;59888;55.814;37.132;2024-02-04T13:28:44;3.65;;;1.05;;
71395;SDS011;59888;55.814;37.132;2024-02-04T13:31:09;3.03;;;0.90;;
71395;SDS011;59888;55.814;37.132;2024-02-04T13:33:37;3.40;;;0.80;;
71395;SDS011;59888;55.814;37.132;2024-02-04T13:36:10;2.60;;;0.70;;
71395;SDS011;59888;55.814;37.132;2024-02-04T13:38:36;3.20;;;0.90;;
71395;SDS011;59888;55.814;37.132;2024-02-04T13:41:02;3.63;;;0.80;;
71395;SDS011;59888;55.814;37.132;2024-02-04T13:43:34;2.38;;;0.80;;
71395;SDS011;59888;55.814;37.132;2024-02-04T13:46:00;7.07;;;1.10;;
71395;SDS011;59888;55.814;37.132;2024-02-04T13:48:26;6.60;;;1.70;;
71395;SDS011;59888;55.814;37.132;2024-02-04T13:50:52;4.00;;;1.50;;
71395;SDS011;59888;55.814;37.132;2024-02-04T13:53:20;3.10;;;1.00;;
71395;SDS011;59888;55.814;37.132;2024-02-04T13:55:47;1.48;;;0.60;;
71395;SDS011;59888;55.814;37.132;2024-02-04T13:58:14;6.45;;;1.00;;
71395;SDS011;59888;55.814;37.132;2024-02-04T14:00:40;3.15;;;0.80;;
71395;SDS011;59888;55.814;37.132;2024-02-04T14:03:06;3.45;;;1.20;;
71395;SDS011;59888;55.814;37.132;2024-02-04T14:05:34;3.83;;;1.00;;
71395;SDS011;59888;55.814;37.132;2024-02-04T14:08:00;5.60;;;1.70;;
71395;SDS011;59888;55.814;37.132;2024-02-04T14:10:26;4.40;;;1.45;;
71395;SDS011;59888;55.814;37.132;2024-02-04T14:12:54;6.00;;;2.20;;
71395;SDS011;59888;55.814;37.132;2024-02-04T14:15:19;12.07;;;3.58;;
71395;SDS011;59888;55.814;37.132;2024-02-04T14:17:45;11.50;;;4.50;;
71395;SDS011;59888;55.814;37.132;2024-02-04T14:20:11;10.73;;;4.30;;
71395;SDS011;59888;55.814;37.132;2024-02-04T14:22:40;6.88;;;2.58;;
71395;SDS011;59888;55.814;37.132;2024-02-04T14:25:06;7.25;;;3.03;;
71395;SDS011;59888;55.814;37.132;2024-02-04T14:27:33;10.15;;;3.47;;
71395;SDS011;59888;55.814;37.132;2024-02-04T14:29:58;22.70;;;9.30;;
71395;SDS011;59888;55.814;37.132;2024-02-04T14:32:25;13.68;;;5.22;;
71395;SDS011;59888;55.814;37.132;2024-02-04T14:34:51;4.88;;;2.10;;
71395;SDS011;59888;55.814;37.132;2024-02-04T14:37:19;9.63;;;2.10;;
71395;SDS011;59888;55.814;37.132;2024-02-04T14:39:45;7.53;;;1.95;;
71395;SDS011;59888;55.814;37.132;2024-02-04T14:42:12;2.35;;;1.20;;
71395;SDS011;59888;55.814;37.132;2024-02-04T14:44:37;5.53;;;2.05;;
71395;SDS011;59888;55.814;37.132;2024-02-04T14:47:03;5.15;;;2.13;;
71395;SDS011;59888;55.814;37.132;2024-02-04T14:49:29;5.97;;;2.50;;
71395;SDS011;59888;55.814;37.132;2024-02-04T14:51:55;3.58;;;1.30;;